Airfield :
LOGIN :

Register | Disclaimer

   EN    FR    IT 

 










Legend :    VFR   Marginal VFR   IFR   Intensive IFR   Very Intensive IFR
Visi :
Ceiling :
>= 8 km
>= 3000ft
5 to 8 km
1000 to 3000 ft
1500m to 5 km
500 to 1000 ft
800 to 1500m
200 to 500 ft
< 800m
< 200 ft
Symbols :   Thunderstorms  Fog  Heavy snow  Heavy precipitations  Wind > 20 kt
SIGMETs :     Misc.  Thunderstorms  Icing  Turbulence  Mountain Waves  Volcanic Ashes







- Airport Elevation : 309 ft
- IATA code : FNI
- Download approach charts


LFTW - Nîmes Garons

CURRENT METAR :
  • 281230Z AUTO VRB05G17KT CAVOK 34/01 Q1014 NOSIG

EXPIRED METARs :
  • 281200Z AUTO VRB04KT CAVOK 33/07 Q1014 NOSIG
  • 281130Z AUTO VRB03KT CAVOK 32/08 Q1015 BECMG 20013KT
  • 281100Z AUTO VRB05KT CAVOK 31/08 Q1015 NOSIG
  • 281030Z AUTO 34006KT 270V060 CAVOK 30/08 Q1015 BECMG 20013KT
  • 281000Z AUTO 27005KT 220V320 CAVOK 30/08 Q1015 NOSIG

TAF TAF LFTW
Valid from the 28 at 09:00 until the 29 at 09:00 UTC


280800Z 2809/2909 33008KT CAVOK
BECMG 2812/2815 20013KT
BECMG 2818/2822 VRB03KT
No reported NOTAMs for that airfield.



MET'MAP, your aeronautical weather chart ! - Copyright ORBIFLY December 2007 - Disclaimer

ORBIFLY MET'MAP TEAM :

Programming & Development : Alexandra Zaïnal
Concept & Development : Baudouin d'Aumeries
Co-Development & Prog : Marc-Olivier Méhu
Technical & hardware support : Manuel Goepfert

Contact : metmap@orbifly.com




SOURCES & CREDITS :

   NOAA